Nearby METAR Reports

 

KVCT - Victoria, Texas, USA
Distance from station: E 12mi, 20km
Updated: 12/14/2018 6:51am
Overcast
Overcast
 Wind from NW
Wind: NW 20 mph , 31 km/h, Gust: 24 mph , 39 km/h
Temperature: 48°F , 9°C
Wind Chill: 41°F , 5°C
Dew Point: 36°F , 2°C
Humidity: 62%
Barometer: 30.00 inHg , 1015.9 hPa
Clouds: Overcast
Visibility: 10 miles , 16 km
Cloud details: Overcast 3600 ft
2018/12/14 12:51 KVCT 141251Z 31017G21KT 10SM OVC036 09/02 A3000 RMK AO2 PK WND 33030/1214 SLP157 T00890017
KPKV - Port Lavaca, Texas, USA
Distance from station: ESE 31mi, 50km
Updated: 12/13/2018 4:35pm
NOT Current
Overcast
Overcast
 Wind from WNW
Wind: WNW 13 mph , 20 km/h
Temperature: 72°F , 22°C
Dew Point: 48°F , 9°C
Humidity: 44%
Barometer: 29.78 inHg , 1008.5 hPa
Clouds: Overcast
Visibility: 10 miles , 16 km
Cloud details: Overcast 10000 ft
2018/12/13 22:35 KPKV 132235Z AUTO 29011KT 10SM OVC100 22/09 A2978 RMK AO2 T02150090
 
KT20 - Gonzales Muni, Texas, USA
Distance from station: NNW 50mi, 81km
Updated: 12/14/2018 7:15am
Overcast
Overcast
 Wind from NW
Wind: NW 14 mph , 22 km/h, Gust: 21 mph , 33 km/h
Temperature: 46°F , 8°C
Wind Chill: 40°F , 4°C
Dew Point: 36°F , 2°C
Humidity: 66%
Barometer: 30.02 inHg , 1016.6 hPa
Clouds: Overcast
Visibility: 10 miles , 16 km
Cloud details: Overcast 3000 ft
2018/12/14 13:15 KT20 141315Z AUTO 32012G18KT 10SM OVC030 08/02 A3002 RMK AO2 T00750017
KBEA - Beeville Muni, Texas, USA
Distance from station: SW 51mi, 83km
Updated: 12/14/2018 7:15am
Clear
Clear
 Wind from NW
Wind: NW 22 mph , 35 km/h, Gust: 30 mph , 48 km/h
Temperature: 50°F , 10°C
Wind Chill: 43°F , 6°C
Dew Point: 32°F , 0°C
Humidity: 50%
Barometer: 30.06 inHg , 1017.9 hPa
Clouds: Clear
Visibility: 10 miles , 16 km
2018/12/14 13:15 KBEA 141315Z AUTO 32019G26KT 10SM CLR 10/00 A3006 RMK AO2 T01001003
 
KRKP - Rockport, Texas, USA
Distance from station: S 53mi, 86km
Updated: 12/14/2018 6:53am
Clear
Clear
 Wind from WNW
Wind: WNW 16 mph , 26 km/h, Gust: 24 mph , 39 km/h
Temperature: 48°F , 9°C
Wind Chill: 42°F , 6°C
Dew Point: 36°F , 2°C
Humidity: 62%
Barometer: 30.03 inHg , 1016.9 hPa
Clouds: Clear
Visibility: 10 miles , 16 km
2018/12/14 12:53 KRKP 141253Z AUTO 30014G21KT 10SM CLR 09/02 A3003 RMK AO2 SLP170 T00890022
KPSX - Palacios, Texas, USA
Distance from station: E 55mi, 88km
Updated: 12/14/2018 6:53am
Overcast
Overcast
 Wind from WNW
Wind: WNW 20 mph , 31 km/h
Temperature: 48°F , 9°C
Wind Chill: 41°F , 5°C
Dew Point: 41°F , 5°C
Humidity: 76%
Barometer: 29.98 inHg , 1015.2 hPa
Clouds: Overcast
Visibility: 10 miles , 16 km
Cloud details: Partly cloudy 3500 ft
Overcast 5000 ft
2018/12/14 12:53 KPSX 141253Z AUTO 30017KT 10SM SCT035 OVC050 09/05 A2998 RMK AO2 PK WND 29031/1225 SLP150 T00940050
 
KTFP - Ingleside/Tp Mcc, Texas, USA
Distance from station: S 65mi, 104km
Updated: 12/14/2018 6:55am
Clear
Clear
 Wind from NW
Wind: NW 7 mph , 11 km/h
Temperature: 46°F , 8°C
Wind Chill: 42°F , 6°C
Dew Point: 34°F , 1°C
Humidity: 62%
Barometer: 30.05 inHg , 1017.6 hPa
Clouds: Clear
Visibility: 10 miles , 16 km
2018/12/14 12:55 KTFP 141255Z AUTO 31006KT 10SM CLR 08/01 A3005 RMK AO2 T00770005 PNO
K66R - Columbus, Texas, USA
Distance from station: NE 66mi, 106km
Updated: 12/14/2018 6:55am
Overcast
Overcast
 Wind from WNW
Wind: WNW 10 mph , 17 km/h, Gust: 18 mph , 30 km/h
Temperature: 46°F , 8°C
Wind Chill: 41°F , 5°C
Dew Point: 36°F , 2°C
Humidity: 66%
Barometer: 29.96 inHg , 1014.6 hPa
Clouds: Overcast
Visibility: 10 miles , 16 km
Cloud details: Overcast 2500 ft
2018/12/14 12:55 K66R 141255Z AUTO 30009G16KT 10SM OVC025 08/02 A2996 RMK AO2 LTG DSNT NE T00780017
 
KARM - Wharton, Texas, USA
Distance from station: ENE 66mi, 106km
Updated: 12/14/2018 7:15am
Overcast
Overcast
 Wind from W
Wind: W 16 mph , 26 km/h
Temperature: 45°F , 7°C
Wind Chill: 38°F , 3°C
Dew Point: 37°F , 3°C
Humidity: 76%
Barometer: 29.96 inHg , 1014.6 hPa
Clouds: Overcast
Visibility: 10 miles , 16 km
Cloud details: Partly cloudy 2000 ft
Overcast 2800 ft
2018/12/14 13:15 KARM 141315Z AUTO 28014KT 10SM SCT020 OVC028 07/03 A2996 RMK AO2 T00720032
KRAS - Port Aransas, Texas, USA
Distance from station: S 71mi, 115km
Updated: 12/14/2018 7:15am
Clear
Clear
 Wind from WNW
Wind: WNW 13 mph , 20 km/h
Temperature: 50°F , 10°C
Wind Chill: 45°F , 7°C
Dew Point: 34°F , 1°C
Humidity: 54%
Barometer: 30.07 inHg , 1018.3 hPa
Clouds: Clear
Visibility: 10 miles , 16 km
2018/12/14 13:15 KRAS 141315Z AUTO 29011KT 10SM CLR 10/01 A3007 RMK AO2 T00950006
 
KELA - Eagle Lake, Texas, USA
Distance from station: NE 72mi, 115km
Updated: 12/14/2018 7:15am
Overcast
Overcast
 Wind from WNW
Wind: WNW 15 mph , 24 km/h, Gust: 23 mph , 37 km/h
Temperature: 48°F , 9°C
Wind Chill: 42°F , 6°C
Dew Point: 39°F , 4°C
Humidity: 71%
Barometer: 29.95 inHg , 1014.2 hPa
Clouds: Overcast
Visibility: 10 miles , 16 km
Cloud details: Overcast 2600 ft
2018/12/14 13:15 KELA 141315Z AUTO 30013G20KT 10SM OVC026 09/04 A2995 RMK AO2 T00850039
K3T5 - La Grange, Texas, USA
Distance from station: N 73mi, 118km
Updated: 12/14/2018 7:15am
Overcast
Overcast
 Wind from NW
Wind: NW 14 mph , 22 km/h, Gust: 22 mph , 35 km/h
Temperature: 46°F , 8°C
Wind Chill: 40°F , 4°C
Dew Point: 36°F , 2°C
Humidity: 66%
Barometer: 29.96 inHg , 1014.6 hPa
Clouds: Overcast
Visibility: 10 miles , 16 km
Cloud details: Overcast 2700 ft
2018/12/14 13:15 K3T5 141315Z AUTO 32012G19KT 10SM OVC027 08/02 A2996 RMK AO2 T00800023
 
KBYY - Bay City, Texas, USA
Distance from station: E 77mi, 124km
Updated: 12/14/2018 7:15am
Overcast
Overcast
 Wind from W
Wind: W 24 mph , 39 km/h, Gust: 30 mph , 48 km/h
Temperature: 46°F , 8°C
Wind Chill: 38°F , 3°C
Dew Point: 41°F , 5°C
Humidity: 82%
Barometer: 29.95 inHg , 1014.2 hPa
Clouds: Overcast
Visibility: 10 miles , 16 km
Cloud details: Mostly cloudy 2500 ft
Mostly cloudy 3400 ft
Overcast 5500 ft
2018/12/14 13:15 KBYY 141315Z AUTO 28021G26KT 10SM BKN025 BKN034 OVC055 08/05 A2995 RMK AO2 T00850046
KCRP - Corpus Christi, Texas, USA
Distance from station: SSW 78mi, 126km
Updated: 12/14/2018 6:51am
Few Clouds
Few Clouds
 Wind from WNW
Wind: WNW 22 mph , 35 km/h, Gust: 26 mph , 43 km/h
Temperature: 48°F , 9°C
Wind Chill: 41°F , 5°C
Dew Point: 28°F , -2°C
Humidity: 46%
Barometer: 30.06 inHg , 1017.9 hPa
Clouds: Few Clouds
Visibility: 10 miles , 16 km
Cloud details: Few Clouds 4000 ft
2018/12/14 12:51 KCRP 141251Z 29019G23KT 10SM FEW040 09/M02 A3006 RMK AO2 SLP177 T00941017
 
KNGP - C. Christi Nas, Texas, USA
Distance from station: S 81mi, 130km
Updated: 12/14/2018 6:56am
Clear
Clear
 Wind from WNW
Wind: WNW 22 mph , 35 km/h, Gust: 28 mph , 44 km/h
Temperature: 52°F , 11°C
Dew Point: 30°F , -1°C
Humidity: 44%
Barometer: 30.05 inHg , 1017.6 hPa
Clouds: Clear
Visibility: 10 miles , 16 km
2018/12/14 12:56 KNGP 141256Z 30019G24KT 10SM CLR 11/M01 A3005 RMK AO2 SLP176 T01061006
KRBO - Robstown/Nueces, Texas, USA
Distance from station: SSW 81mi, 130km
Updated: 12/12/2018 2:55pm
NOT Current
Clear
Clear
 Wind from SSE
Wind: SSE 15 mph , 24 km/h
Temperature: 72°F , 22°C
Dew Point: 63°F , 17°C
Humidity: 73%
Barometer: 29.91 inHg , 1012.9 hPa
Clouds: Clear
Visibility: 10 miles , 16 km
2018/12/12 20:55 KRBO 122055Z AUTO 16013KT 10SM CLR 22/17 A2991 RMK AO2 T02170165
 
KBAZ - New Braunfels, Texas, USA
Distance from station: NW 81mi, 131km
Updated: 12/14/2018 6:51am
Overcast
Overcast
 Wind from NW
Wind: NW 21 mph , 33 km/h, Gust: 33 mph , 54 km/h
Temperature: 45°F , 7°C
Wind Chill: 37°F , 3°C
Dew Point: 34°F , 1°C
Humidity: 66%
Barometer: 30.01 inHg , 1016.3 hPa
Clouds: Overcast
Visibility: 10 miles , 16 km
Cloud details: Overcast 2700 ft
2018/12/14 12:51 KBAZ 141251Z 32018G29KT 10SM OVC027 07/01 A3001 RMK AO2 PK WND 32031/1241 SLP162 T00670006
KRND - Randolph Afb, Texas, USA
Distance from station: NW 82mi, 132km
Updated: 12/14/2018 6:56am
Overcast
Overcast
 Wind from WNW
Wind: WNW 18 mph , 30 km/h, Gust: 29 mph , 46 km/h
Temperature: 43°F , 6°C
Wind Chill: 35°F , 2°C
Dew Point: 34°F , 1°C
Humidity: 71%
Barometer: 30.04 inHg , 1017.3 hPa
Clouds: Overcast
Visibility: 10 miles , 16 km
Cloud details: Overcast 2600 ft
2018/12/14 12:56 KRND 141256Z AUTO 30016G25KT 10SM OVC026 06/01 A3004 RMK AO2 PK WND 32029/35 SLP174 T00570005 $
 
KHYI - San Marcos, Texas, USA
Distance from station: NNW 84mi, 135km
Updated: 12/14/2018 6:56am
Overcast
Overcast
 Wind from NNW
Wind: NNW 21 mph , 33 km/h, Gust: 32 mph , 52 km/h
Temperature: 43°F , 6°C
Wind Chill: 34°F , 1°C
Dew Point: 34°F , 1°C
Humidity: 71%
Barometer: 30.02 inHg , 1016.6 hPa
Clouds: Overcast
Visibility: 10 miles , 16 km
Cloud details: Overcast 2500 ft
2018/12/14 12:56 KHYI 141256Z 33018G28KT 10SM OVC025 06/01 A3002 RMK AO2 PK WND 33033/1223 SLP163 T00610011
KPEZ - Pleasanton Muni, Texas, USA
Distance from station: W 84mi, 135km
Updated: 12/14/2018 7:15am
Partly cloudy
Partly cloudy
 Wind from WNW
Wind: WNW 6 mph , 9 km/h
Temperature: 39°F , 4°C
Wind Chill: 35°F , 2°C
Dew Point: 32°F , 0°C
Humidity: 75%
Barometer: 30.10 inHg , 1019.3 hPa
Clouds: Partly cloudy
Visibility: 10 miles , 16 km
Cloud details: Partly cloudy 4000 ft
Partly cloudy 5500 ft
2018/12/14 13:15 KPEZ 141315Z AUTO 29005KT 10SM SCT040 SCT055 04/00 A3010 RMK AO2 T00411004